createdAt,value
2023-01-27T00:01:51.897Z,77.30
2023-01-27T00:04:20.750Z,77.50
2023-01-27T00:06:49.371Z,77.20
2023-01-27T00:09:18.291Z,77.90
2023-01-27T00:12:04.978Z,76.90
2023-01-27T00:14:33.704Z,78.20
2023-01-27T00:17:02.467Z,77.00
2023-01-27T00:19:31.260Z,77.50
2023-01-27T00:22:18.186Z,77.50
2023-01-27T00:24:47.009Z,77.80
2023-01-27T00:27:15.396Z,78.40
2023-01-27T00:29:45.315Z,79.20
2023-01-27T00:32:32.345Z,79.70
2023-01-27T00:35:01.206Z,79.50
2023-01-27T00:37:29.626Z,77.80
2023-01-27T00:39:58.539Z,77.40
2023-01-27T00:42:27.086Z,77.60
2023-01-27T00:45:14.510Z,78.80
2023-01-27T00:47:43.006Z,78.10
2023-01-27T00:50:12.212Z,78.50
2023-01-27T00:52:41.026Z,79.30
2023-01-27T00:55:13.080Z,78.70
2023-01-27T00:57:41.838Z,78.10
2023-01-27T01:00:12.409Z,79.40
2023-01-27T01:02:41.263Z,80.60
2023-01-27T01:05:10.375Z,78.40
2023-01-27T01:07:38.845Z,78.40
2023-01-27T01:10:11.687Z,80.20
2023-01-27T01:12:40.256Z,78.30
2023-01-27T01:15:09.593Z,78.70
2023-01-27T01:17:38.032Z,78.20
2023-01-27T01:20:07.987Z,78.30
2023-01-27T01:22:36.532Z,78.50
2023-01-27T01:25:05.997Z,79.60
2023-01-27T01:27:34.392Z,80.00
2023-01-27T01:30:04.275Z,78.90
2023-01-27T01:32:33.855Z,79.20
2023-01-27T01:35:02.585Z,78.80
2023-01-27T01:37:31.021Z,78.30
2023-01-27T01:39:59.815Z,79.40
2023-01-27T01:42:55.779Z,78.20
2023-01-27T01:45:39.875Z,78.80
2023-01-27T01:48:18.860Z,78.10
2023-01-27T01:50:58.902Z,79.10
2023-01-27T01:53:34.157Z,78.90
2023-01-27T01:56:09.325Z,79.80
2023-01-27T01:58:37.855Z,78.20
2023-01-27T02:01:09.727Z,78.70
2023-01-27T02:03:38.917Z,78.40
2023-01-27T02:06:07.974Z,78.60
2023-01-27T02:08:42.256Z,78.00
2023-01-27T02:11:11.275Z,78.30
2023-01-27T02:13:39.927Z,78.00
2023-01-27T02:16:11.156Z,78.80
2023-01-27T02:18:40.935Z,78.10
2023-01-27T02:21:11.895Z,78.20
2023-01-27T02:24:02.510Z,78.00
2023-01-27T02:26:35.606Z,78.20
2023-01-27T02:29:13.335Z,77.90
2023-01-27T02:31:42.421Z,77.70
2023-01-27T02:34:17.299Z,78.60
2023-01-27T02:36:58.216Z,78.00
2023-01-27T02:39:33.496Z,78.60
2023-01-27T02:42:02.411Z,78.90
2023-01-27T02:44:30.960Z,78.20
2023-01-27T02:46:59.724Z,78.30
2023-01-27T02:49:29.250Z,78.20
2023-01-27T02:51:58.019Z,77.90
2023-01-27T02:54:26.627Z,77.50
2023-01-27T02:56:56.204Z,78.10
2023-01-27T02:59:27.299Z,78.20
2023-01-27T03:01:56.080Z,78.60
2023-01-27T03:04:24.611Z,77.80
2023-01-27T03:06:53.395Z,77.30
2023-01-27T03:09:21.885Z,77.70
2023-01-27T03:12:10.384Z,78.10
2023-01-27T03:14:57.695Z,77.10
2023-01-27T03:17:44.793Z,77.00
2023-01-27T03:20:13.649Z,77.40
2023-01-27T03:22:42.868Z,77.60
2023-01-27T03:27:43.567Z,77.20
2023-01-27T03:30:35.203Z,77.00
2023-01-27T03:33:13.615Z,77.50
2023-01-27T03:36:03.456Z,77.10
2023-01-27T03:38:51.849Z,76.90
2023-01-27T03:41:38.895Z,77.00
2023-01-27T03:44:26.105Z,76.30
2023-01-27T03:46:54.544Z,77.30
2023-01-27T03:49:23.380Z,76.90
2023-01-27T03:51:51.818Z,76.90
2023-01-27T03:54:20.578Z,76.40
2023-01-27T03:59:19.555Z,76.40
2023-01-27T04:01:48.085Z,76.40
2023-01-27T04:04:35.504Z,76.40
2023-01-27T04:07:04.003Z,76.40
2023-01-27T04:09:35.989Z,76.70
2023-01-27T04:12:06.314Z,76.50
2023-01-27T04:14:39.493Z,76.60
2023-01-27T04:17:18.493Z,76.20
2023-01-27T04:19:48.091Z,76.50
2023-01-27T04:22:16.627Z,76.10
2023-01-27T04:24:45.367Z,76.10
2023-01-27T04:27:16.597Z,76.00
2023-01-27T04:29:46.338Z,76.30
2023-01-27T04:32:14.907Z,76.30
2023-01-27T04:34:44.815Z,76.10
2023-01-27T04:37:13.178Z,76.40
2023-01-27T04:39:45.883Z,78.90
2023-01-27T04:42:14.664Z,76.60
2023-01-27T04:44:43.506Z,76.00
2023-01-27T04:47:12.011Z,75.70
2023-01-27T04:52:09.509Z,75.20
2023-01-27T04:54:39.455Z,75.20
2023-01-27T04:57:07.976Z,74.90
2023-01-27T04:59:36.838Z,74.50
2023-01-27T05:02:05.383Z,74.40
2023-01-27T05:04:34.334Z,73.90
2023-01-27T05:07:02.905Z,73.50
2023-01-27T05:09:31.876Z,73.00
2023-01-27T05:12:00.985Z,72.70
2023-01-27T05:14:31.169Z,72.30
2023-01-27T05:16:59.737Z,72.00
2023-01-27T05:19:28.823Z,71.80
2023-01-27T05:21:57.325Z,71.50
2023-01-27T05:24:26.218Z,71.10
2023-01-27T05:26:54.749Z,70.90
2023-01-27T05:29:23.877Z,70.70
2023-01-27T05:31:52.405Z,70.40
2023-01-27T05:34:21.247Z,70.20
2023-01-27T05:36:49.947Z,70.00
2023-01-27T05:39:19.957Z,69.80
2023-01-27T05:41:48.601Z,69.60
2023-01-27T05:44:17.443Z,69.40
2023-01-27T05:46:45.979Z,69.30
2023-01-27T05:49:15.962Z,69.20
2023-01-27T05:51:44.432Z,68.90
2023-01-27T05:54:13.168Z,68.80
2023-01-27T05:56:41.572Z,68.70
2023-01-27T05:59:11.314Z,68.50
2023-01-27T06:01:39.993Z,68.40
2023-01-27T06:04:09.966Z,68.50
2023-01-27T06:06:38.393Z,68.50
2023-01-27T06:09:07.232Z,68.50
2023-01-27T06:11:35.585Z,68.50
2023-01-27T06:14:04.374Z,68.50
2023-01-27T06:16:35.089Z,68.60
2023-01-27T06:19:05.084Z,68.60
2023-01-27T06:21:33.515Z,69.40
2023-01-27T06:24:02.502Z,68.80
2023-01-27T06:26:31.023Z,68.70
2023-01-27T06:28:59.819Z,68.80
2023-01-27T06:31:28.634Z,68.60
2023-01-27T06:33:57.523Z,68.70
2023-01-27T06:36:26.491Z,68.50
2023-01-27T06:38:55.382Z,68.50
2023-01-27T06:41:25.700Z,68.30
2023-01-27T06:43:54.631Z,68.20
2023-01-27T06:46:23.226Z,68.00
2023-01-27T06:48:52.120Z,67.90
2023-01-27T06:51:20.663Z,68.00
2023-01-27T06:53:49.544Z,68.10
2023-01-27T06:56:18.025Z,68.20
2023-01-27T06:58:46.882Z,68.20
2023-01-27T07:01:15.541Z,68.60
2023-01-27T07:03:45.066Z,68.60
2023-01-27T07:06:15.276Z,68.50
2023-01-27T07:08:47.306Z,69.30
2023-01-27T07:11:15.899Z,68.70
2023-01-27T07:13:44.857Z,68.80
2023-01-27T07:16:13.468Z,69.60
2023-01-27T07:18:42.457Z,69.30
2023-01-27T07:21:11.235Z,69.50
2023-01-27T07:23:40.155Z,69.40
2023-01-27T07:26:23.297Z,69.50
2023-01-27T07:28:53.795Z,69.40
2023-01-27T07:31:23.878Z,69.30
2023-01-27T07:33:54.006Z,69.60
2023-01-27T07:38:51.881Z,69.20
2023-01-27T07:41:20.405Z,69.80
2023-01-27T07:43:52.399Z,69.60
2023-01-27T07:46:21.396Z,69.70
2023-01-27T07:48:50.219Z,69.90
2023-01-27T07:56:17.646Z,69.60
2023-01-27T07:58:46.556Z,69.60
2023-01-27T08:01:15.363Z,69.40
2023-01-27T08:03:44.254Z,69.40
2023-01-27T08:06:13.219Z,69.30
2023-01-27T08:08:42.205Z,69.30
2023-01-27T08:11:14.277Z,69.30
2023-01-27T08:13:43.334Z,69.20
2023-01-27T08:16:14.013Z,69.40
2023-01-27T08:18:42.985Z,69.30
2023-01-27T08:21:12.420Z,69.30
2023-01-27T08:23:41.323Z,69.50
2023-01-27T08:53:38.616Z,69.30
2023-01-27T08:56:11.992Z,69.80
2023-01-27T08:58:40.931Z,68.70
2023-01-27T09:01:09.570Z,70.50
2023-01-27T09:03:38.477Z,69.30
2023-01-27T09:06:09.433Z,70.40
2023-01-27T09:08:38.487Z,70.30
2023-01-27T09:11:15.590Z,68.40
2023-01-27T09:13:44.600Z,70.00
2023-01-27T09:16:13.032Z,68.70
2023-01-27T09:18:42.817Z,69.00
2023-01-27T09:21:12.054Z,68.60
2023-01-27T09:23:40.849Z,70.90
2023-01-27T09:26:09.272Z,69.00
2023-01-27T09:28:38.107Z,71.10
2023-01-27T09:31:09.048Z,70.70
2023-01-27T09:33:39.270Z,70.50
2023-01-27T09:36:17.099Z,69.80
2023-01-27T09:38:54.227Z,68.90
2023-01-27T09:42:07.432Z,70.10
2023-01-27T09:44:37.255Z,69.70
2023-01-27T09:47:31.475Z,68.80
2023-01-27T09:50:31.687Z,69.20
2023-01-27T09:53:00.206Z,69.40
2023-01-27T09:56:20.621Z,69.10
2023-01-27T09:58:54.745Z,69.00
2023-01-27T10:01:41.418Z,70.10
2023-01-27T10:04:50.501Z,69.30
2023-01-27T10:07:49.866Z,69.20
2023-01-27T10:10:36.244Z,70.40
2023-01-27T10:13:26.046Z,69.80
2023-01-27T10:16:16.227Z,68.50
2023-01-27T10:18:58.037Z,69.40
2023-01-27T10:21:55.124Z,68.40
2023-01-27T10:24:42.712Z,69.00
2023-01-27T10:27:22.395Z,68.70
2023-01-27T10:30:10.103Z,68.80
2023-01-27T10:32:53.624Z,69.30
2023-01-27T10:35:44.733Z,67.30
2023-01-27T10:38:36.340Z,68.70
2023-01-27T17:39:56.260Z,85.40
2023-01-27T17:58:05.907Z,83.30
